Belfort, New York
Current Conditions -  °F | °C
As of 2:28 PM on Sunday 21 Dec 2014 (Local Time) from KGTB Reporting Station
Overcast Overcast  
Wind Chill: 32°   Ceiling: 2100
Heat Index: 32°   Visibility: 9mi
Dew Point: 19°   Wind: 1mph
Humidity: 60%   Direction: NA
Pressure: 30.27"   Gusts: NA
Location:  43.9554°N, 75.2819°W
Report Text: KGTB 211928Z AUTO VRB01KT 9SM BKN021 OVC080 00/M07 A3027 RMK AO2 CIG 021V080 BKN V SCT
Loading
Personal Weather Stations






























Interactive Weather Map New forecast layout! Learn more

10-Day Weather Forecast

Advertisements
Track Severe Weather on mobile